Time;durP1;ratioP1;P1;durP2;ratioP2;P2;SDS_P1;SDS_P2;PMS_P1;PMS_P2;Temp;Humidity;BMP_temperature;BMP_pressure;BME280_temperature;BME280_humidity;BME280_pressure;Samples;Min_cycle;Max_cycle;Signal;HPM_P1;HPM_P2
2022/11/18 00:01:54;;;;;;;2.30;1.10;;;6.60;99.90;;;;;;5033557;28;20202;-84
2022/11/18 00:04:20;;;;;;;1.00;0.90;;;6.60;99.90;;;;;;5016142;28;20238;-84
2022/11/18 00:06:46;;;;;;;1.53;1.10;;;6.70;99.90;;;;;;5033958;28;20660;-84
2022/11/18 00:09:11;;;;;;;1.67;1.10;;;6.70;99.90;;;;;;5034117;28;20182;-84
2022/11/18 00:14:26;;;;;;;2.67;1.10;;;6.60;99.90;;;;;;5034148;28;20209;-84
2022/11/18 00:16:53;;;;;;;4.53;1.20;;;6.60;99.90;;;;;;5033860;28;20205;-84
2022/11/18 00:19:20;;;;;;;2.90;1.10;;;6.50;99.90;;;;;;5016494;28;20683;-84
2022/11/18 00:21:46;;;;;;;2.47;1.30;;;6.50;99.90;;;;;;5015962;28;20208;-84
2022/11/18 00:24:11;;;;;;;4.40;1.40;;;6.50;99.90;;;;;;5033494;28;20188;-83
2022/11/18 00:26:37;;;;;;;1.80;1.30;;;6.40;99.90;;;;;;5015887;28;20173;-84
2022/11/18 00:29:03;;;;;;;3.40;1.50;;;6.50;99.90;;;;;;5033452;28;20166;-84
2022/11/18 00:31:28;;;;;;;2.13;1.20;;;6.50;99.90;;;;;;5015700;28;20194;-84
2022/11/18 00:33:54;;;;;;;2.20;1.20;;;6.50;99.90;;;;;;5033560;28;20248;-84
2022/11/18 00:36:19;;;;;;;1.60;1.10;;;6.50;99.90;;;;;;5033338;28;20223;-84
2022/11/18 00:38:45;;;;;;;1.40;1.10;;;6.60;99.90;;;;;;5015918;28;20230;-84
2022/11/18 00:41:13;;;;;;;2.10;1.07;;;6.70;99.90;;;;;;5033626;28;20220;-84
2022/11/18 00:43:39;;;;;;;0.97;0.80;;;6.70;99.90;;;;;;5015428;28;20194;-83
2022/11/18 00:46:07;;;;;;;0.87;0.87;;;6.70;99.90;;;;;;5033330;28;20629;-84
2022/11/18 00:48:33;;;;;;;1.30;0.97;;;6.50;99.90;;;;;;5033452;28;20703;-84
2022/11/18 00:51:15;;;;;;;1.20;0.80;;;6.50;99.90;;;;;;5015704;28;20293;-83
2022/11/18 00:53:41;;;;;;;1.40;0.90;;;6.50;99.90;;;;;;5033228;28;20174;-84
2022/11/18 00:56:08;;;;;;;1.20;1.10;;;6.60;99.90;;;;;;5032917;28;20182;-83
2022/11/18 00:58:34;;;;;;;2.43;1.03;;;6.60;99.90;;;;;;5015221;28;20182;-84
2022/11/18 01:01:00;;;;;;;1.70;1.10;;;6.60;99.90;;;;;;5066405;23;20226;-84
2022/11/18 01:03:27;;;;;;;2.73;1.40;;;6.70;99.90;;;;;;5013312;28;20213;-83
2022/11/18 01:05:53;;;;;;;3.20;1.30;;;6.70;99.90;;;;;;5014272;28;20182;-84
2022/11/18 01:08:19;;;;;;;1.30;1.20;;;6.70;99.90;;;;;;5029125;28;20171;-83
2022/11/18 01:10:46;;;;;;;2.60;1.60;;;6.70;99.90;;;;;;5029066;28;20732;-84
2022/11/18 01:13:22;;;;;;;2.63;1.87;;;6.70;99.90;;;;;;5012935;28;20171;-83
2022/11/18 01:15:57;;;;;;;2.17;1.70;;;6.70;99.90;;;;;;5028930;28;20175;-83
2022/11/18 01:18:26;;;;;;;2.67;1.70;;;6.70;99.90;;;;;;5014237;28;20179;-84
2022/11/18 01:20:51;;;;;;;4.03;1.50;;;6.70;99.90;;;;;;5013925;28;20294;-84
2022/11/18 01:23:18;;;;;;;3.13;1.77;;;6.80;99.90;;;;;;5028759;28;20346;-85
2022/11/18 01:25:45;;;;;;;2.27;1.80;;;6.80;99.90;;;;;;5014173;28;20633;-83
2022/11/18 01:28:12;;;;;;;2.23;1.60;;;6.80;99.90;;;;;;5029530;28;20256;-83
2022/11/18 01:30:39;;;;;;;2.37;2.00;;;6.80;99.90;;;;;;5012626;28;20200;-85
2022/11/18 01:33:06;;;;;;;3.33;2.20;;;6.80;99.90;;;;;;5029333;28;20183;-83
2022/11/18 01:35:40;;;;;;;2.80;2.10;;;6.80;99.90;;;;;;5029559;28;20269;-83
2022/11/18 01:38:05;;;;;;;3.70;2.30;;;6.70;99.90;;;;;;5029632;28;20182;-83
2022/11/18 01:40:32;;;;;;;2.33;1.83;;;6.80;99.90;;;;;;5029726;28;20229;-83
2022/11/18 01:42:58;;;;;;;2.57;2.00;;;6.80;99.90;;;;;;5029668;28;20249;-84
2022/11/18 01:45:27;;;;;;;2.27;1.90;;;6.70;99.90;;;;;;5029320;28;20171;-83
2022/11/18 01:48:22;;;;;;;2.67;2.17;;;6.70;99.90;;;;;;5029855;28;20541;-83
2022/11/18 01:50:58;;;;;;;2.77;2.00;;;6.60;99.90;;;;;;5013574;28;20229;-83
2022/11/18 01:53:28;;;;;;;2.70;2.03;;;6.70;99.90;;;;;;5029699;28;20182;-83
2022/11/18 01:55:58;;;;;;;3.97;2.40;;;6.70;99.90;;;;;;5030047;28;20178;-84
2022/11/18 01:58:29;;;;;;;3.17;2.23;;;6.70;99.90;;;;;;5029811;28;20186;-84
2022/11/18 02:00:55;;;;;;;2.43;2.20;;;6.70;99.90;;;;;;5015166;28;20676;-85
2022/11/18 02:03:21;;;;;;;3.23;2.13;;;6.70;99.90;;;;;;5029819;28;20206;-84
2022/11/18 02:05:49;;;;;;;2.37;2.10;;;6.80;99.90;;;;;;5030654;28;20177;-84
2022/11/18 02:08:16;;;;;;;2.20;2.00;;;6.80;99.90;;;;;;5016432;28;20287;-84
2022/11/18 02:10:42;;;;;;;2.97;2.10;;;6.80;99.90;;;;;;5028062;28;20199;-84
2022/11/18 02:13:07;;;;;;;2.53;2.13;;;6.80;99.90;;;;;;5027389;28;20256;-83
2022/11/18 02:15:42;;;;;;;2.97;2.23;;;6.80;99.90;;;;;;5012210;28;20199;-85
2022/11/18 02:18:37;;;;;;;4.90;2.23;;;6.80;99.90;;;;;;5012401;28;20552;-84
2022/11/18 02:21:28;;;;;;;2.57;1.97;;;6.80;99.90;;;;;;5012256;28;20199;-83
2022/11/18 02:24:02;;;;;;;3.10;2.13;;;6.70;99.90;;;;;;5028353;28;20216;-83
2022/11/18 02:26:43;;;;;;;2.73;1.97;;;6.80;99.90;;;;;;5015904;28;20581;-83
2022/11/18 02:29:19;;;;;;;2.07;1.90;;;6.90;99.90;;;;;;5015996;28;20181;-84
2022/11/18 02:32:03;;;;;;;2.40;2.20;;;6.80;99.90;;;;;;5031310;28;20237;-83
2022/11/18 02:34:50;;;;;;;1.97;1.77;;;6.80;99.90;;;;;;5015735;28;20182;-83
2022/11/18 02:37:18;;;;;;;3.03;1.80;;;6.80;99.90;;;;;;5015625;28;20174;-83
2022/11/18 02:39:57;;;;;;;2.73;1.93;;;6.80;99.90;;;;;;5015704;28;20535;-84
2022/11/18 02:42:25;;;;;;;3.03;2.10;;;6.80;99.90;;;;;;5030996;28;20206;-84
2022/11/18 02:44:57;;;;;;;2.03;1.83;;;6.80;99.90;;;;;;5031060;28;20213;-84
2022/11/18 02:47:26;;;;;;;2.10;1.90;;;6.80;99.90;;;;;;5015651;28;20205;-83
2022/11/18 02:49:57;;;;;;;3.07;1.97;;;6.80;99.90;;;;;;5015445;28;20175;-83
2022/11/18 02:52:25;;;;;;;2.03;1.60;;;6.80;99.90;;;;;;5030816;28;20182;-83
2022/11/18 02:54:52;;;;;;;2.50;1.90;;;6.90;99.90;;;;;;5030626;28;20183;-83
2022/11/18 02:57:19;;;;;;;3.30;1.87;;;7.00;99.90;;;;;;5030749;28;20266;-83
2022/11/18 02:59:53;;;;;;;2.20;1.90;;;7.00;99.90;;;;;;5030795;28;20178;-83
2022/11/18 03:02:20;;;;;;;3.33;1.80;;;7.10;99.90;;;;;;5030950;28;20213;-85
2022/11/18 03:04:48;;;;;;;3.93;1.53;;;7.00;99.90;;;;;;5015342;28;20178;-84
2022/11/18 03:07:34;;;;;;;4.47;1.70;;;7.00;99.90;;;;;;5030472;28;20171;-84
2022/11/18 03:10:01;;;;;;;2.27;1.77;;;7.10;99.90;;;;;;5014252;28;20202;-84
2022/11/18 03:13:05;;;;;;;1.80;1.70;;;7.10;99.90;;;;;;5015890;28;20179;-84
2022/11/18 03:15:43;;;;;;;4.40;1.97;;;7.10;99.90;;;;;;5012950;28;20209;-83
2022/11/18 03:18:11;;;;;;;3.00;1.60;;;7.10;99.90;;;;;;4996685;28;20270;-83
2022/11/18 03:20:46;;;;;;;3.00;1.77;;;7.20;99.90;;;;;;5005365;28;20227;-84
2022/11/18 03:23:17;;;;;;;2.33;1.87;;;7.20;99.90;;;;;;5030321;28;20212;-84
2022/11/18 03:26:08;;;;;;;2.93;1.60;;;7.10;99.90;;;;;;5030522;28;20592;-84
2022/11/18 03:28:51;;;;;;;2.10;1.90;;;7.10;99.90;;;;;;5030407;28;20175;-85
2022/11/18 03:31:28;;;;;;;3.53;1.87;;;7.10;99.90;;;;;;5030337;28;20190;-84
2022/11/18 03:34:01;;;;;;;4.03;2.37;;;7.10;99.90;;;;;;5030735;28;20193;-83
2022/11/18 03:36:32;;;;;;;3.00;2.20;;;7.20;99.90;;;;;;5029662;28;20175;-84
2022/11/18 03:39:02;;;;;;;2.53;2.20;;;7.10;99.90;;;;;;5030907;28;20179;-84
2022/11/18 03:41:31;;;;;;;2.13;1.90;;;7.20;99.90;;;;;;5030570;28;20199;-83
2022/11/18 03:44:03;;;;;;;3.27;2.20;;;7.10;99.90;;;;;;5030154;28;20199;-84
2022/11/18 03:46:37;;;;;;;4.27;2.30;;;7.10;99.90;;;;;;5030230;28;20177;-84
2022/11/18 03:49:06;;;;;;;3.63;2.37;;;7.20;99.90;;;;;;5015523;28;20649;-84
2022/11/18 03:51:37;;;;;;;4.77;2.20;;;7.10;99.90;;;;;;5015204;28;20192;-83
2022/11/18 03:54:10;;;;;;;2.90;2.40;;;7.10;99.90;;;;;;5030520;28;20226;-83
2022/11/18 03:56:41;;;;;;;3.50;2.60;;;7.00;99.90;;;;;;5015531;28;20233;-83
2022/11/18 03:59:17;;;;;;;3.00;2.30;;;7.00;99.90;;;;;;5030646;28;20254;-83
2022/11/18 04:01:51;;;;;;;3.77;2.40;;;7.00;99.90;;;;;;5030665;28;20206;-84
2022/11/18 04:04:17;;;;;;;4.43;2.27;;;7.00;99.90;;;;;;5015135;28;20182;-84
2022/11/18 04:06:49;;;;;;;3.10;2.50;;;7.00;99.90;;;;;;5030858;28;20171;-84
2022/11/18 04:09:19;;;;;;;3.30;2.47;;;7.00;99.90;;;;;;5031182;28;20175;-83
2022/11/18 04:12:03;;;;;;;2.73;2.20;;;7.10;99.90;;;;;;5015536;28;20191;-84
2022/11/18 04:14:38;;;;;;;3.13;2.10;;;7.10;99.90;;;;;;5015545;28;20195;-84
2022/11/18 04:17:13;;;;;;;3.33;2.33;;;7.10;99.90;;;;;;5031229;28;20637;-84
2022/11/18 04:19:39;;;;;;;4.77;2.50;;;7.10;99.90;;;;;;5015938;28;20174;-83
2022/11/18 04:22:05;;;;;;;3.63;2.53;;;7.10;99.90;;;;;;5015643;28;20207;-84
2022/11/18 04:24:31;;;;;;;3.07;2.27;;;7.10;99.90;;;;;;5030380;28;20171;-83
2022/11/18 04:26:57;;;;;;;3.93;2.27;;;7.10;99.90;;;;;;5030848;28;20282;-84
2022/11/18 04:29:22;;;;;;;2.50;2.20;;;7.10;99.90;;;;;;5031242;28;20629;-83
2022/11/18 04:31:48;;;;;;;2.90;2.30;;;7.10;99.90;;;;;;5031343;28;20681;-84
2022/11/18 04:34:13;;;;;;;6.63;2.27;;;7.10;99.90;;;;;;5031300;28;20175;-84
2022/11/18 04:36:39;;;;;;;3.57;2.30;;;7.10;99.90;;;;;;5031462;28;20203;-83
2022/11/18 04:39:05;;;;;;;2.20;2.00;;;7.10;99.90;;;;;;5031664;28;20255;-84
2022/11/18 04:44:14;;;;;;;2.80;2.40;;;7.20;99.90;;;;;;5017375;28;20182;-84
2022/11/18 04:46:41;;;;;;;3.80;2.67;;;7.20;99.90;;;;;;5030625;28;20179;-84
2022/11/18 04:49:12;;;;;;;2.40;2.20;;;7.20;99.90;;;;;;5013556;28;20172;-84
2022/11/18 04:51:38;;;;;;;3.93;2.33;;;7.20;99.90;;;;;;5028397;28;20198;-85
2022/11/18 04:54:04;;;;;;;4.33;2.40;;;7.20;99.90;;;;;;5028100;28;20176;-83
2022/11/18 04:56:30;;;;;;;3.43;2.50;;;7.20;99.90;;;;;;5013508;28;20182;-85
2022/11/18 04:58:58;;;;;;;4.33;2.50;;;7.20;99.90;;;;;;5028802;28;20175;-83
2022/11/18 05:01:24;;;;;;;3.93;2.30;;;7.20;99.90;;;;;;5028314;28;20218;-85
2022/11/18 05:03:49;;;;;;;4.90;2.67;;;7.20;99.90;;;;;;5012915;28;20210;-83
2022/11/18 05:06:15;;;;;;;3.43;2.63;;;7.10;99.90;;;;;;5013134;28;20175;-84
2022/11/18 05:08:40;;;;;;;3.47;2.50;;;7.10;99.90;;;;;;5013336;28;20680;-84
2022/11/18 05:13:51;;;;;;;3.47;2.73;;;7.10;99.90;;;;;;5013158;28;20194;-84
2022/11/18 05:16:17;;;;;;;3.83;2.87;;;7.10;99.90;;;;;;5011748;28;20186;-85
2022/11/18 05:18:42;;;;;;;4.00;2.73;;;7.10;99.90;;;;;;5028502;28;20183;-83
2022/11/18 05:21:08;;;;;;;3.23;2.37;;;7.10;99.90;;;;;;5028188;28;20581;-83
2022/11/18 05:23:33;;;;;;;3.67;2.40;;;7.10;99.90;;;;;;5027811;28;20236;-84
2022/11/18 05:26:07;;;;;;;2.80;2.60;;;7.10;99.90;;;;;;5028322;28;20171;-84
2022/11/18 05:28:33;;;;;;;3.47;2.63;;;7.10;99.90;;;;;;5028432;28;20210;-83
2022/11/18 05:30:58;;;;;;;3.17;2.33;;;7.10;99.90;;;;;;5012921;28;20231;-84
2022/11/18 05:33:24;;;;;;;2.93;2.50;;;7.10;99.90;;;;;;5028232;28;20634;-83
2022/11/18 05:35:50;;;;;;;4.77;2.63;;;7.20;99.90;;;;;;5013396;28;20182;-83
2022/11/18 05:38:15;;;;;;;2.83;2.30;;;7.20;99.90;;;;;;5013012;28;20178;-84
2022/11/18 05:40:42;;;;;;;4.03;2.63;;;7.10;99.90;;;;;;5028610;28;20228;-82
2022/11/18 05:43:10;;;;;;;3.97;2.80;;;7.10;99.90;;;;;;5013270;28;20207;-83
2022/11/18 05:45:39;;;;;;;3.33;2.43;;;7.20;99.90;;;;;;5029224;28;20181;-83
2022/11/18 05:48:06;;;;;;;4.47;2.53;;;7.20;99.90;;;;;;5028981;28;20267;-82
2022/11/18 05:50:35;;;;;;;3.57;2.73;;;7.20;99.90;;;;;;5013697;28;20336;-85
2022/11/18 05:53:03;;;;;;;3.20;2.73;;;7.20;99.90;;;;;;5028715;28;20180;-83
2022/11/18 05:55:37;;;;;;;3.20;2.40;;;7.20;99.90;;;;;;5028701;28;20202;-85
2022/11/18 05:58:02;;;;;;;3.83;2.37;;;7.10;99.90;;;;;;5028809;28;20265;-84
2022/11/18 06:00:29;;;;;;;3.77;2.50;;;7.20;99.90;;;;;;5032149;28;20250;-84
2022/11/18 06:02:56;;;;;;;5.13;2.97;;;7.20;99.90;;;;;;5017166;28;20207;-84
2022/11/18 06:05:25;;;;;;;3.57;3.10;;;7.20;99.90;;;;;;5032415;28;20179;-84
2022/11/18 06:07:53;;;;;;;4.03;2.90;;;7.30;99.90;;;;;;5016500;28;20253;-86
2022/11/18 06:10:23;;;;;;;3.80;2.80;;;7.40;99.90;;;;;;5016106;28;20207;-86
2022/11/18 06:12:51;;;;;;;4.10;2.33;;;7.40;99.90;;;;;;5016278;28;20196;-86
2022/11/18 06:15:26;;;;;;;4.23;2.70;;;7.40;99.90;;;;;;5031672;28;20202;-86
2022/11/18 06:17:55;;;;;;;4.23;2.50;;;7.40;99.90;;;;;;5030910;28;20192;-87
2022/11/18 06:20:21;;;;;;;3.07;2.77;;;7.40;99.90;;;;;;5030646;28;20266;-87
2022/11/18 06:22:52;;;;;;;5.83;2.97;;;7.40;99.90;;;;;;5030711;28;20291;-86
2022/11/18 06:25:18;;;;;;;6.70;5.17;;;7.40;99.90;;;;;;5030590;28;20171;-86
2022/11/18 06:27:45;;;;;;;4.53;3.67;;;7.40;99.90;;;;;;5031099;28;20268;-87
2022/11/18 06:30:11;;;;;;;5.03;3.50;;;7.40;99.90;;;;;;5030654;28;20182;-86
2022/11/18 06:32:36;;;;;;;4.83;3.80;;;7.50;99.90;;;;;;5015254;28;20176;-87
2022/11/18 06:35:02;;;;;;;5.20;4.13;;;7.50;99.90;;;;;;5030418;28;20218;-86
2022/11/18 06:37:28;;;;;;;6.03;4.10;;;7.40;99.90;;;;;;5030539;28;20186;-86
2022/11/18 06:39:53;;;;;;;5.23;4.10;;;7.40;99.90;;;;;;5030438;28;20187;-86
2022/11/18 06:45:04;;;;;;;6.47;4.63;;;7.30;99.90;;;;;;5015665;28;20609;-86
2022/11/18 06:47:29;;;;;;;5.83;4.67;;;7.30;99.90;;;;;;5030928;28;20551;-84
2022/11/18 06:49:55;;;;;;;4.30;3.30;;;7.30;99.90;;;;;;5032093;28;20642;-79
2022/11/18 06:52:22;;;;;;;5.80;3.30;;;7.50;99.90;;;;;;5032199;28;20177;-80
2022/11/18 06:54:47;;;;;;;4.40;3.77;;;7.90;99.90;;;;;;5017189;28;20178;-80
2022/11/18 06:57:13;;;;;;;7.03;4.60;;;8.20;99.90;;;;;;5032672;28;20172;-82
2022/11/18 06:59:38;;;;;;;4.47;3.63;;;8.40;99.90;;;;;;5032102;28;20646;-82
2022/11/18 07:02:04;;;;;;;5.17;4.37;;;8.60;99.90;;;;;;5060809;22;20582;-81
2022/11/18 07:04:30;;;;;;;7.37;4.50;;;8.70;99.90;;;;;;5034086;28;20540;-84
2022/11/18 07:06:56;;;;;;;5.27;4.20;;;8.50;99.90;;;;;;5034980;28;20194;-85
2022/11/18 07:09:21;;;;;;;5.77;4.00;;;8.50;99.90;;;;;;5034730;28;20174;-86
2022/11/18 07:11:47;;;;;;;5.40;4.10;;;8.30;99.90;;;;;;5033725;28;20201;-86
2022/11/18 07:14:13;;;;;;;4.63;3.97;;;8.20;99.90;;;;;;5034666;28;20187;-83
2022/11/18 07:16:38;;;;;;;4.70;4.00;;;8.00;99.90;;;;;;5033748;28;20177;-83
2022/11/18 07:19:09;;;;;;;5.20;4.00;;;7.90;99.90;;;;;;5033646;28;20181;-83
2022/11/18 07:21:35;;;;;;;5.60;3.87;;;7.80;99.90;;;;;;5034519;28;20255;-83
2022/11/18 07:24:05;;;;;;;7.10;4.83;;;7.70;99.90;;;;;;5034379;28;20207;-83
2022/11/18 07:26:30;;;;;;;5.50;4.70;;;7.70;99.90;;;;;;5034572;28;20184;-82
2022/11/18 07:28:56;;;;;;;4.90;4.10;;;7.70;99.90;;;;;;5034856;28;20173;-82
2022/11/18 07:31:21;;;;;;;7.77;4.47;;;7.70;99.90;;;;;;5033426;28;20263;-83
2022/11/18 07:33:47;;;;;;;5.97;4.33;;;7.70;99.90;;;;;;5034729;28;20181;-83
2022/11/18 07:36:18;;;;;;;5.53;4.30;;;7.60;99.90;;;;;;5033272;28;20202;-83
2022/11/18 07:38:45;;;;;;;8.40;4.70;;;7.60;99.90;;;;;;5034473;28;20598;-83
2022/11/18 07:41:16;;;;;;;9.33;4.93;;;7.50;99.90;;;;;;5033015;28;20204;-83
2022/11/18 07:43:43;;;;;;;8.37;5.73;;;7.50;99.90;;;;;;5034282;28;20290;-84
2022/11/18 07:46:12;;;;;;;7.37;5.07;;;7.50;99.90;;;;;;5032890;28;20172;-84
2022/11/18 07:48:38;;;;;;;7.93;5.77;;;7.50;99.90;;;;;;5032747;28;20188;-83
2022/11/18 07:51:03;;;;;;;6.63;5.67;;;7.50;99.90;;;;;;5032732;28;20187;-83
2022/11/18 07:53:30;;;;;;;7.60;5.80;;;7.50;99.90;;;;;;5032870;28;20183;-83
2022/11/18 07:55:55;;;;;;;8.30;6.00;;;7.60;99.90;;;;;;5034332;28;20180;-83
2022/11/18 07:58:21;;;;;;;6.83;5.07;;;7.60;99.90;;;;;;5032893;28;20224;-84
2022/11/18 08:00:46;;;;;;;11.63;5.90;;;7.70;99.90;;;;;;5032589;28;20279;-83
2022/11/18 08:03:12;;;;;;;8.27;6.03;;;7.70;99.90;;;;;;5033605;28;20206;-83
2022/11/18 08:05:37;;;;;;;9.10;5.90;;;7.70;99.90;;;;;;5033860;28;20168;-83
2022/11/18 08:08:03;;;;;;;9.47;6.90;;;7.70;99.90;;;;;;5032697;28;20172;-84
2022/11/18 08:10:29;;;;;;;7.40;5.57;;;7.70;99.90;;;;;;5032040;28;20178;-83
2022/11/18 08:12:56;;;;;;;8.10;6.10;;;7.80;99.90;;;;;;5033670;28;20182;-83
2022/11/18 08:15:22;;;;;;;12.67;7.03;;;7.80;99.90;;;;;;5032132;28;20215;-83
2022/11/18 08:17:48;;;;;;;9.80;7.00;;;7.80;99.90;;;;;;5032121;28;20179;-84
2022/11/18 08:20:13;;;;;;;13.97;7.53;;;7.90;99.90;;;;;;5033412;28;20191;-83
2022/11/18 08:22:39;;;;;;;12.83;6.90;;;7.90;99.90;;;;;;5031776;28;20203;-83
2022/11/18 08:25:05;;;;;;;13.87;7.00;;;8.00;99.90;;;;;;5032793;28;20172;-83
2022/11/18 08:27:31;;;;;;;11.10;7.43;;;8.00;99.90;;;;;;5032249;28;20176;-83
2022/11/18 08:29:57;;;;;;;13.13;7.40;;;8.00;99.90;;;;;;5033547;28;20264;-83
2022/11/18 08:32:22;;;;;;;11.67;7.13;;;8.10;99.90;;;;;;5031922;28;20244;-83
2022/11/18 08:34:49;;;;;;;14.03;7.80;;;8.10;99.90;;;;;;5033271;28;20180;-83
2022/11/18 08:37:15;;;;;;;13.67;8.17;;;8.10;99.90;;;;;;5030013;28;20228;-83
2022/11/18 08:39:41;;;;;;;12.37;8.30;;;8.10;99.90;;;;;;5033252;28;20176;-83
2022/11/18 08:42:08;;;;;;;15.03;8.97;;;8.20;99.90;;;;;;5031494;28;20216;-84
2022/11/18 08:44:34;;;;;;;12.97;8.30;;;8.30;99.90;;;;;;5033104;28;20176;-83
2022/11/18 08:47:00;;;;;;;13.30;7.83;;;8.30;99.90;;;;;;5032236;28;20219;-83
2022/11/18 08:49:25;;;;;;;12.43;8.23;;;8.30;99.90;;;;;;5032782;28;20219;-82
2022/11/18 08:51:51;;;;;;;12.57;8.40;;;8.30;99.90;;;;;;5032529;28;20351;-82
2022/11/18 08:54:17;;;;;;;16.63;8.53;;;8.30;99.90;;;;;;5033120;28;20254;-83
2022/11/18 08:56:42;;;;;;;12.10;8.67;;;8.30;99.90;;;;;;5033154;28;20190;-83
2022/11/18 08:59:08;;;;;;;14.60;8.83;;;8.40;99.90;;;;;;5033146;28;20701;-83
2022/11/18 09:01:37;;;;;;;11.30;8.13;;;8.50;99.90;;;;;;5032952;28;20655;-83
2022/11/18 09:04:03;;;;;;;13.43;8.23;;;8.50;99.90;;;;;;5031795;28;20209;-83
2022/11/18 09:06:29;;;;;;;10.50;7.67;;;8.50;99.90;;;;;;5031943;28;20177;-82
2022/11/18 09:08:55;;;;;;;11.03;7.50;;;8.60;99.90;;;;;;5032052;28;20202;-83
2022/11/18 09:11:23;;;;;;;12.17;7.90;;;8.60;99.90;;;;;;5032028;28;20232;-83
2022/11/18 09:13:53;;;;;;;11.70;8.37;;;8.50;99.90;;;;;;5031767;28;20584;-82
2022/11/18 09:16:19;;;;;;;11.43;8.50;;;8.60;99.90;;;;;;5032710;28;20599;-82
2022/11/18 09:18:45;;;;;;;14.17;8.97;;;8.70;99.90;;;;;;5032744;28;20182;-83
2022/11/18 09:21:10;;;;;;;12.03;8.90;;;8.80;99.90;;;;;;5031952;28;20234;-81
2022/11/18 09:23:37;;;;;;;16.83;9.43;;;8.70;99.90;;;;;;5032844;28;20222;-82
2022/11/18 09:26:06;;;;;;;14.37;9.87;;;8.70;99.90;;;;;;5031221;28;20613;-84
2022/11/18 09:28:32;;;;;;;16.83;10.00;;;8.80;99.90;;;;;;5031381;28;20177;-82
2022/11/18 09:30:57;;;;;;;16.53;10.07;;;8.80;99.90;;;;;;5032658;28;20203;-85
2022/11/18 09:33:23;;;;;;;15.20;10.00;;;8.80;99.90;;;;;;5032498;28;20184;-84
2022/11/18 09:35:49;;;;;;;15.40;10.40;;;8.80;99.90;;;;;;5035723;28;20174;-85
2022/11/18 09:38:15;;;;;;;15.50;9.80;;;8.90;99.90;;;;;;5035923;28;20180;-82
2022/11/18 09:41:04;;;;;;;16.07;10.80;;;8.90;99.90;;;;;;5036612;28;20229;-83
2022/11/18 09:43:38;;;;;;;16.03;10.63;;;8.90;99.90;;;;;;5036446;28;20223;-82
2022/11/18 09:46:20;;;;;;;14.80;10.40;;;8.90;99.90;;;;;;5037161;28;20176;-81
2022/11/18 09:51:37;;;;;;;14.63;10.30;;;8.90;99.90;;;;;;5039482;28;20199;-81
2022/11/18 09:54:03;;;;;;;15.07;10.70;;;9.00;99.90;;;;;;5037218;28;20212;-80
2022/11/18 09:56:29;;;;;;;17.83;10.53;;;9.00;99.90;;;;;;5036352;28;20216;-84
2022/11/18 09:58:55;;;;;;;14.63;9.00;;;9.00;99.90;;;;;;5038623;28;20177;-81
2022/11/18 10:01:21;;;;;;;13.07;8.57;;;9.00;99.90;;;;;;5038153;28;20708;-82
2022/11/18 10:03:46;;;;;;;12.40;9.10;;;8.90;99.90;;;;;;5036635;28;20209;-82
2022/11/18 10:06:15;;;;;;;12.37;8.43;;;9.00;99.90;;;;;;5037378;28;20181;-80
2022/11/18 10:08:49;;;;;;;10.97;8.23;;;9.00;99.90;;;;;;5037930;28;20177;-82
2022/11/18 10:11:17;;;;;;;11.70;8.00;;;9.10;99.90;;;;;;5037178;28;20192;-81
2022/11/18 10:13:58;;;;;;;13.67;8.03;;;9.10;99.90;;;;;;5037462;28;20181;-80
2022/11/18 10:16:51;;;;;;;13.37;8.73;;;9.20;99.90;;;;;;5037199;28;20181;-84
2022/11/18 10:19:31;;;;;;;11.77;8.30;;;9.20;99.90;;;;;;5035788;28;20182;-83
2022/11/18 10:22:13;;;;;;;10.67;7.83;;;9.20;99.90;;;;;;5038600;28;20196;-81
2022/11/18 10:24:43;;;;;;;14.13;8.27;;;9.20;99.90;;;;;;5036541;28;20182;-84
2022/11/18 10:27:12;;;;;;;12.57;8.40;;;9.20;99.90;;;;;;5036303;28;20174;-82
2022/11/18 10:29:38;;;;;;;11.90;8.37;;;9.20;99.90;;;;;;5036259;28;20170;-81
2022/11/18 10:32:06;;;;;;;14.73;9.00;;;9.20;99.90;;;;;;5037892;28;20280;-82
2022/11/18 10:34:34;;;;;;;11.40;8.27;;;9.20;99.90;;;;;;5036082;28;20177;-82
2022/11/18 10:37:04;;;;;;;11.20;7.57;;;9.20;99.90;;;;;;5036355;28;20177;-84
2022/11/18 10:39:30;;;;;;;10.73;7.50;;;9.20;99.90;;;;;;5035398;28;20675;-81
2022/11/18 10:42:14;;;;;;;11.03;7.80;;;9.30;99.90;;;;;;5031899;28;20200;-79
2022/11/18 10:44:41;;;;;;;11.63;7.67;;;9.30;99.90;;;;;;5037449;28;20183;-80
2022/11/18 10:47:30;;;;;;;14.10;7.50;;;9.40;99.90;;;;;;5038706;28;20181;-80
2022/11/18 10:50:02;;;;;;;10.40;7.90;;;9.40;99.90;;;;;;5036990;28;20173;-81
2022/11/18 10:52:28;;;;;;;133.77;76.40;;;9.40;99.90;;;;;;5037328;28;20189;-79
2022/11/18 10:55:13;;;;;;;67.40;36.30;;;9.50;99.90;;;;;;5038315;28;20170;-81
2022/11/18 10:57:42;;;;;;;78.70;43.30;;;10.00;99.90;;;;;;5038783;28;20226;-82
2022/11/18 11:00:31;;;;;;;66.10;37.53;;;10.40;99.90;;;;;;5036251;28;20171;-81
2022/11/18 11:02:57;;;;;;;85.43;46.10;;;10.70;99.90;;;;;;5036572;28;20275;-83
2022/11/18 11:05:24;;;;;;;66.47;37.13;;;11.10;99.90;;;;;;5036315;28;20174;-81
2022/11/18 11:08:18;;;;;;;37.67;22.63;;;11.30;99.90;;;;;;5036330;28;20166;-81
2022/11/18 11:10:55;;;;;;;9.73;7.13;;;11.40;99.90;;;;;;5036154;28;20209;-80
2022/11/18 11:13:22;;;;;;;10.13;7.07;;;11.30;99.90;;;;;;5036543;28;20181;-82
2022/11/18 11:15:51;;;;;;;10.70;7.23;;;10.80;99.90;;;;;;5033519;28;20181;-82
2022/11/18 12:13:47;;;;;;;6.67;4.57;;;9.50;99.90;;;;;;5402615;22;21070;-82
2022/11/18 12:16:32;;;;;;;5.83;4.47;;;9.50;99.90;;;;;;5032589;28;20163;-84
2022/11/18 12:19:10;;;;;;;6.80;4.73;;;9.40;99.90;;;;;;5033896;28;20229;-84
2022/11/18 12:21:44;;;;;;;7.60;5.67;;;9.40;99.90;;;;;;5030798;28;20175;-84
2022/11/18 12:24:23;;;;;;;7.17;4.93;;;9.30;99.90;;;;;;5013314;28;20206;-82
2022/11/18 12:26:50;;;;;;;5.53;4.30;;;9.30;99.90;;;;;;5037278;28;20712;-84
2022/11/18 12:29:18;;;;;;;6.40;4.47;;;9.30;99.90;;;;;;5028162;28;20555;-84
2022/11/18 12:31:58;;;;;;;9.53;4.77;;;9.30;99.90;;;;;;5013278;28;20662;-86
2022/11/18 12:34:24;;;;;;;7.63;4.33;;;9.30;99.90;;;;;;5012501;28;20362;-85
2022/11/18 12:36:50;;;;;;;6.53;4.40;;;9.40;99.90;;;;;;5013701;28;20172;-85
2022/11/18 12:39:24;;;;;;;7.97;4.63;;;9.40;99.90;;;;;;5014023;28;20175;-85
2022/11/18 12:44:47;;;;;;;6.17;4.23;;;9.40;99.90;;;;;;5014656;28;20174;-85
2022/11/18 12:47:36;;;;;;;6.60;4.43;;;9.40;99.90;;;;;;5013299;28;20250;-85
2022/11/18 12:50:01;;;;;;;4.83;3.70;;;9.40;99.90;;;;;;5012130;28;20191;-84
2022/11/18 12:52:30;;;;;;;5.87;3.50;;;9.40;99.90;;;;;;5020604;28;20273;-85
2022/11/18 12:55:12;;;;;;;4.27;3.20;;;9.50;99.90;;;;;;5033013;28;20174;-85
2022/11/18 12:57:40;;;;;;;6.90;5.80;;;9.40;99.90;;;;;;5034733;28;20209;-85
2022/11/18 13:00:21;;;;;;;11.53;10.07;;;9.30;99.90;;;;;;5011566;28;20254;-83
2022/11/18 13:02:55;;;;;;;8.27;6.67;;;9.30;99.90;;;;;;5014576;28;20210;-85
2022/11/18 13:05:27;;;;;;;5.83;5.10;;;9.20;99.90;;;;;;5029744;28;20174;-84
2022/11/18 13:08:12;;;;;;;5.30;3.93;;;9.10;99.90;;;;;;5035091;28;20253;-86
2022/11/18 13:17:50;;;;;;;19.33;14.27;;;8.80;99.90;;;;;;5033226;28;20254;-83
2022/11/18 13:19:23;;;;;;;6.47;5.07;;;8.80;99.90;;;;;;5021046;28;20189;-85
2022/11/18 13:24:49;;;;;;;25.53;21.13;;;8.70;99.90;;;;;;5017414;28;20183;-84
2022/11/18 13:27:37;;;;;;;7.73;6.60;;;8.70;99.90;;;;;;5016333;28;20185;-79
2022/11/18 13:30:05;;;;;;;4.30;3.33;;;8.70;99.90;;;;;;5016474;28;20181;-84
2022/11/18 13:32:31;;;;;;;5.23;4.50;;;8.70;99.90;;;;;;5014953;28;20199;-83
2022/11/18 13:35:06;;;;;;;4.37;3.70;;;8.60;99.90;;;;;;5016891;28;20241;-84
2022/11/18 13:37:33;;;;;;;4.77;3.57;;;8.70;99.90;;;;;;5013572;28;20181;-83
2022/11/18 13:39:59;;;;;;;5.10;4.30;;;8.60;99.90;;;;;;5016909;28;20281;-84
2022/11/18 13:42:27;;;;;;;4.77;4.27;;;8.60;99.90;;;;;;5014975;28;20299;-85
2022/11/18 13:45:01;;;;;;;4.67;3.93;;;8.50;99.90;;;;;;5013410;28;20173;-84
2022/11/18 13:47:47;;;;;;;5.90;5.27;;;8.50;99.90;;;;;;5017026;28;20273;-84
2022/11/18 13:50:29;;;;;;;5.03;3.60;;;8.50;99.90;;;;;;5015845;28;20648;-83
2022/11/18 13:53:06;;;;;;;5.13;4.63;;;8.40;99.90;;;;;;5017410;28;20239;-84
2022/11/18 13:55:54;;;;;;;4.00;3.20;;;8.40;99.90;;;;;;5015611;28;20523;-83
2022/11/18 13:58:30;;;;;;;4.07;3.30;;;8.20;99.90;;;;;;5014574;28;20182;-86
2022/11/18 14:00:59;;;;;;;5.07;3.53;;;8.00;99.90;;;;;;5017856;28;20226;-83
2022/11/18 14:03:33;;;;;;;4.07;3.47;;;8.00;99.90;;;;;;5018514;28;20215;-82
2022/11/18 14:05:59;;;;;;;4.53;2.70;;;8.00;99.90;;;;;;5021801;28;20181;-80
2022/11/18 14:08:33;;;;;;;5.93;4.47;;;8.10;99.90;;;;;;5019352;28;20187;-81
2022/11/18 14:10:59;;;;;;;3.33;2.70;;;8.20;99.90;;;;;;5016946;28;20175;-83
2022/11/18 14:13:46;;;;;;;6.37;4.10;;;8.50;99.90;;;;;;5018569;28;20216;-85
2022/11/18 14:16:18;;;;;;;2.13;1.93;;;8.90;99.90;;;;;;5019541;28;20189;-82
2022/11/18 14:18:46;;;;;;;2.50;2.30;;;8.70;99.90;;;;;;5020638;28;20193;-83
2022/11/18 14:21:12;;;;;;;2.60;1.90;;;8.60;99.90;;;;;;5024950;28;20182;-84
2022/11/18 14:23:42;;;;;;;2.50;2.10;;;8.90;99.90;;;;;;5020673;28;20224;-82
2022/11/18 14:26:08;;;;;;;2.63;2.30;;;8.80;99.90;;;;;;5018034;28;20178;-84
2022/11/18 14:28:36;;;;;;;2.03;1.83;;;8.40;99.90;;;;;;5018691;28;20181;-83